Stations météo

Publicité
Kinbrace, Grande-Bretagne (99016): Température de l'air & dewpoint: 13.11.2017 20:00:00 - 19.11.2017 20:00:00 (GMT)Kinbrace, Grande-Bretagne (99016): Vitesse du vent & gusts: 13.11.2017 20:00:00 - 19.11.2017 20:00:00 (GMT)Kinbrace, Grande-Bretagne (99016): Direction du vent: 13.11.2017 20:00:00 - 19.11.2017 20:00:00 (GMT)Kinbrace, Grande-Bretagne (99016): Quantités de précipitations: 13.11.2017 20:00:00 - 19.11.2017 20:00:00 (GMT)
Date & Time tt [°C] td [°C] ff [km/h] ff [knt] fx [km/h] fx [knt] dd rr [mm]
19.11.2017 20:00:00 - - - - - - - -
19.11.2017 19:00:00 2,4 1,5 5 3 - - SE 0,0
19.11.2017 18:00:00 2,4 1,6 5 3 - - SE 0,0
19.11.2017 17:00:00 2,5 1,6 5 3 - - E 0,0
19.11.2017 16:00:00 3,1 2,0 2 1 - - E 0,0
19.11.2017 15:00:00 3,6 2,3 5 3 - - E 0,0
19.11.2017 14:00:00 3,6 2,2 4 2 - - SSW 0,0
19.11.2017 13:00:00 4,9 2,3 11 6 - - NW 0,0
19.11.2017 12:00:00 - - - - - - - 0,0
19.11.2017 11:00:00 3,6 2,2 4 2 - - NNW 0,2
19.11.2017 10:00:00 2,2 0,7 5 3 - - N 0,0
19.11.2017 09:00:00 -0,6 -1,4 4 2 - - S 0,0
19.11.2017 08:00:00 -0,7 -1,6 4 2 - - E 0,0
19.11.2017 07:00:00 0,5 -1,3 8 4 - - NNW 0,0
19.11.2017 06:00:00 1,2 -0,5 11 6 - - N 0,0
19.11.2017 05:00:00 0,2 -0,8 5 3 - - E 0,0
19.11.2017 04:00:00 -0,1 -1,2 4 2 - - NE 0,0
19.11.2017 03:00:00 0,6 -0,6 2 1 - - N 0,0
19.11.2017 02:00:00 1,0 -1,0 15 8 - - NW -
19.11.2017 01:00:00 0,9 -0,3 13 7 - - NNW 0,0
19.11.2017 00:00:00 2,4 0,4 13 7 - - NW 0,0
18.11.2017 23:00:00 3,3 1,5 22 12 - - NNW 0,2
18.11.2017 22:00:00 3,0 1,2 18 10 - - N 0,0
18.11.2017 21:00:00 3,0 0,8 21 11 - - NW 0,0
18.11.2017 20:00:00 1,5 0,6 4 2 - - N 0,0
18.11.2017 19:00:00 1,9 0,9 11 6 - - NNW 0,0
18.11.2017 18:00:00 2,7 1,6 18 10 - - NW 0,2
18.11.2017 17:00:00 2,7 1,8 9 5 - - NW 0,2
18.11.2017 16:00:00 3,3 2,3 21 11 52 28 WNW 1,4
18.11.2017 15:00:00 4,5 3,5 18 10 - - NW 1,6
18.11.2017 14:00:00 4,4 2,8 34 18 52 28 WNW 0,4
18.11.2017 13:00:00 4,8 2,4 29 16 - - NW 0,0
18.11.2017 12:00:00 5,9 0,9 24 13 - - NW 0,0
18.11.2017 11:00:00 4,3 0,6 15 8 - - WNW 0,0
18.11.2017 10:00:00 3,3 -0,4 16 9 - - NW 0,0
18.11.2017 09:00:00 1,8 -0,6 15 8 - - WNW 0,0
18.11.2017 08:00:00 -1,1 -3,6 5 3 - - SSW 0,0
18.11.2017 07:00:00 1,0 -1,7 15 8 - - NW 0,0
18.11.2017 06:00:00 1,2 -1,5 5 3 - - WNW 0,0
18.11.2017 05:00:00 0,2 -1,6 0 0 - - N 0,0
18.11.2017 04:00:00 0,9 -1,1 11 6 - - NW 0,0
18.11.2017 03:00:00 2,3 -0,5 24 13 - - NNW 0,0
18.11.2017 02:00:00 2,6 0,4 26 14 - - WNW 0,2
18.11.2017 01:00:00 2,2 1,3 22 12 50 27 NW 0,2
18.11.2017 00:00:00 2,5 1,3 29 16 50 27 NW -
17.11.2017 23:00:00 3,1 1,4 29 16 50 27 WNW 0,2
17.11.2017 22:00:00 3,7 2,4 15 8 52 28 WNW 0,6
17.11.2017 21:00:00 3,9 2,5 18 10 54 29 WNW 0,6
17.11.2017 20:00:00 4,7 2,6 28 15 46 25 WNW 0,2
17.11.2017 19:00:00 4,5 3,0 34 18 63 34 WNW 1,4
17.11.2017 18:00:00 5,1 2,7 26 14 63 34 W 0,8
17.11.2017 17:00:00 5,1 3,8 21 11 48 26 WNW 1,0
17.11.2017 16:00:00 5,9 3,5 28 15 50 27 W 1,2
17.11.2017 15:00:00 5,4 3,8 37 20 57 31 WNW 0,4
17.11.2017 14:00:00 6,2 4,1 24 13 46 25 WNW 0,0
17.11.2017 13:00:00 7,2 4,8 28 15 50 27 WNW 0,0
17.11.2017 12:00:00 6,8 3,8 18 10 - - W 0,2
17.11.2017 11:00:00 6,2 3,9 24 13 - - WNW 0,0
17.11.2017 10:00:00 6,1 3,5 31 17 48 26 WNW 0,0
17.11.2017 09:00:00 6,1 2,5 18 10 - - W 0,0
17.11.2017 08:00:00 6,3 2,3 18 10 - - WSW 0,0
17.11.2017 07:00:00 5,4 2,0 15 8 - - WSW 0,0
17.11.2017 06:00:00 6,2 3,0 21 11 50 27 WSW 0,0
17.11.2017 05:00:00 6,6 2,6 24 13 - - W 0,0
17.11.2017 04:00:00 6,4 2,8 16 9 - - W 0,0
17.11.2017 03:00:00 6,0 2,4 26 14 54 29 W 0,0
17.11.2017 02:00:00 5,3 2,0 15 8 - - WSW 0,0
17.11.2017 01:00:00 5,9 2,2 22 12 - - SW 0,0
17.11.2017 00:00:00 5,1 1,7 29 16 - - W -
16.11.2017 23:00:00 4,3 0,6 16 9 - - W 0,0
16.11.2017 22:00:00 3,2 0,3 13 7 - - WSW 0,0
16.11.2017 21:00:00 4,2 1,9 28 15 - - WNW 0,0
16.11.2017 20:00:00 3,1 1,1 8 4 - - W 0,0
16.11.2017 19:00:00 3,5 0,5 24 13 - - W 0,0
16.11.2017 18:00:00 1,1 0,2 5 3 50 27 N 0,2
16.11.2017 17:00:00 1,7 0,5 9 5 - - NW 0,6
16.11.2017 16:00:00 2,9 1,6 39 21 65 35 WNW 0,6
16.11.2017 15:00:00 4,0 1,0 28 15 65 35 W 0,4
16.11.2017 14:00:00 4,9 1,2 22 12 59 32 WNW 0,0
16.11.2017 13:00:00 5,1 2,3 28 15 50 27 NW 0,2
16.11.2017 12:00:00 3,3 1,2 24 13 54 29 W 0,8
16.11.2017 11:00:00 4,5 0,9 26 14 48 26 W 0,2
16.11.2017 10:00:00 3,0 0,9 22 12 46 25 W 0,4
16.11.2017 09:00:00 2,8 0,9 37 20 55 30 WNW 0,4
16.11.2017 08:00:00 4,0 1,0 22 12 67 36 W 0,0
16.11.2017 07:00:00 5,3 2,5 15 8 - - WNW 0,0
16.11.2017 06:00:00 6,0 3,5 16 9 - - W 0,2
16.11.2017 05:00:00 7,2 5,7 16 9 - - W 0,2
16.11.2017 04:00:00 7,1 5,4 24 13 48 26 WSW 0,6
16.11.2017 03:00:00 8,0 6,4 28 15 52 28 WSW 1,4
16.11.2017 02:00:00 9,6 7,1 39 21 54 29 S 0,0
16.11.2017 01:00:00 9,3 6,7 37 20 55 30 S 0,0
16.11.2017 00:00:00 8,5 5,9 34 18 48 26 SSE -
15.11.2017 23:00:00 8,1 5,3 29 16 48 26 SSE 0,0
15.11.2017 22:00:00 7,5 4,5 31 17 54 29 SSE 0,0
15.11.2017 21:00:00 7,4 4,0 26 14 - - SSE 0,0
15.11.2017 20:00:00 7,4 3,9 28 15 48 26 SE 0,0
15.11.2017 19:00:00 7,2 4,3 31 17 - - SE 0,0
15.11.2017 18:00:00 6,9 4,6 28 15 - - SE 0,0
15.11.2017 17:00:00 5,8 3,4 22 12 - - ESE 0,0
15.11.2017 16:00:00 5,7 2,8 21 11 - - SE 0,0
15.11.2017 15:00:00 5,5 2,5 16 9 - - ESE -
15.11.2017 14:00:00 5,9 2,9 9 5 - - SSE 0,0
15.11.2017 13:00:00 5,8 3,2 8 4 - - SE 0,0
15.11.2017 12:00:00 4,4 2,7 9 5 - - ESE 0,0
15.11.2017 11:00:00 3,6 2,3 11 6 - - E 0,0
15.11.2017 10:00:00 2,7 1,7 9 5 - - ESE 0,0
15.11.2017 09:00:00 1,4 0,4 9 5 - - E 0,0
15.11.2017 08:00:00 1,1 -0,2 2 1 - - ENE 0,0
15.11.2017 07:00:00 1,4 -0,4 5 3 - - WNW 0,0
15.11.2017 06:00:00 2,1 0,8 8 4 - - E 0,0
15.11.2017 05:00:00 3,5 1,5 4 2 - - WNW 0,0
15.11.2017 04:00:00 4,2 1,7 4 2 - - N 0,0
15.11.2017 03:00:00 - - - - - - - 0,0
15.11.2017 02:00:00 4,5 2,3 16 9 - - W -
15.11.2017 01:00:00 3,2 1,3 5 3 - - NW 0,0
15.11.2017 00:00:00 5,6 3,3 11 6 - - NW 0,0
14.11.2017 23:00:00 5,1 2,8 15 8 - - W 0,0
14.11.2017 22:00:00 6,7 4,0 18 10 - - W 0,0
14.11.2017 21:00:00 6,9 4,7 18 10 - - W 0,0
14.11.2017 20:00:00 5,8 4,5 18 10 - - WSW 0,2
14.11.2017 19:00:00 5,8 4,2 16 9 - - SW 0,0
14.11.2017 18:00:00 6,6 4,2 22 12 - - WSW 0,0
14.11.2017 17:00:00 6,8 4,3 11 6 - - WSW 0,0
14.11.2017 16:00:00 7,1 4,5 5 3 - - ESE 0,0
14.11.2017 15:00:00 7,3 5,2 9 5 - - WSW 0,0
14.11.2017 14:00:00 6,8 5,4 13 7 - - SW 0,0
14.11.2017 13:00:00 7,6 6,2 9 5 - - S 0,0
14.11.2017 12:00:00 - - - - - - - 0,0
14.11.2017 11:00:00 7,6 4,7 11 6 - - WSW 0,0
14.11.2017 10:00:00 6,9 4,7 16 9 - - W 0,0
14.11.2017 09:00:00 7,3 4,0 8 4 - - SW 0,0
14.11.2017 08:00:00 4,4 3,5 4 2 - - E 0,0
14.11.2017 07:00:00 5,7 4,4 15 8 - - NNW 0,0
14.11.2017 06:00:00 5,3 4,4 13 7 - - N 0,2
14.11.2017 05:00:00 5,8 4,8 15 8 - - WNW 0,0
14.11.2017 04:00:00 5,9 5,0 0 0 - - N -
14.11.2017 03:00:00 5,7 4,7 2 1 - - NNE 0,0
14.11.2017 02:00:00 6,4 5,2 4 2 - - E 0,0
14.11.2017 01:00:00 6,5 5,3 11 6 - - NW 0,0
14.11.2017 00:00:00 7,0 6,2 11 6 - - N 0,2
13.11.2017 23:00:00 6,5 5,7 2 1 - - NW 0,2
13.11.2017 22:00:00 6,9 5,9 5 3 - - NW 0,0
13.11.2017 21:00:00 7,9 6,8 24 13 - - NW 0,8
13.11.2017 20:00:00 7,4 6,8 13 7 - - WSW 0,0

tt = Température de l'air
td = dewpoint
ff = Vitesse du vent
fx = gusts
dd = Direction du vent
rr = Quantités de précipitations

stations d'obs. à proximité